首页
METAR-TAF:

METAR-TAF

机场 :

Americus, 喬治亞, 美国

纬度: 32-06-39N, 经度: 084-11-20W, 海拔: 144米

当前天气观测

该预报发布于29分钟前的00:15 UTC
风速3节,风向东南
温度 21°C
湿度 94%
气压 1016 hPa
能見度: 11.3公里
散云层高于300英尺
多云层高于9000英尺
阴天层高于11000英尺

METAR: KACJ 160015Z AUTO 13003KT 7SM RA SCT003 BKN090 OVC110 21/20 A2999 RMK AO2

时间: 20:44 (00:44 UTC)


TAF: 丢失

超过4000个机场的气象观测和天气预报(METAR&TAF报告)。

可查询的气象台以黄色和红色小点在地图上表示。

将鼠标移到小点上方,可查看气象台名称。

然后点击查看天气观测和预报。

如需切换地图:点击带黑十字的绿色按钮放大地图;点击带横线的绿色按钮缩小地图;或者点击绿色箭头查看邻近地区的地图。


METAR-TAF: